Time;durP1;ratioP1;P1;durP2;ratioP2;P2;SDS_P1;SDS_P2;PMS_P1;PMS_P2;Temp;Humidity;BMP_temperature;BMP_pressure;BME280_temperature;BME280_humidity;BME280_pressure;Samples;Min_cycle;Max_cycle;Signal;HPM_P1;HPM_P2
2023/04/28 00:00:11;;;;;;;5.50;3.70;;;9.40;94.10;;;;;;5133915;27;20184;-67
2023/04/28 00:02:44;;;;;;;6.28;4.13;;;9.40;94.20;;;;;;5133369;27;20184;-67
2023/04/28 00:05:16;;;;;;;4.40;2.97;;;9.40;94.30;;;;;;5133631;27;20278;-67
2023/04/28 00:07:47;;;;;;;6.75;2.92;;;9.40;94.30;;;;;;5133342;27;20182;-67
2023/04/28 00:10:16;;;;;;;4.05;2.67;;;9.40;94.10;;;;;;5133663;28;20544;-67
2023/04/28 00:12:45;;;;;;;4.15;3.15;;;9.40;93.80;;;;;;5133216;28;20186;-67
2023/04/28 00:15:13;;;;;;;4.15;3.13;;;9.40;93.90;;;;;;5133309;28;20216;-67
2023/04/28 00:17:41;;;;;;;4.40;3.40;;;9.40;93.90;;;;;;5133243;28;20256;-67
2023/04/28 00:20:09;;;;;;;5.53;3.78;;;9.40;93.90;;;;;;5133702;28;20595;-67
2023/04/28 00:22:39;;;;;;;4.80;3.45;;;9.40;93.70;;;;;;5133194;28;20630;-67
2023/04/28 00:25:09;;;;;;;5.93;3.58;;;9.30;93.90;;;;;;5133299;28;20595;-67
2023/04/28 00:27:39;;;;;;;5.75;3.30;;;9.30;94.10;;;;;;5132996;28;20199;-67
2023/04/28 00:30:08;;;;;;;5.30;2.92;;;9.30;94.20;;;;;;5133415;28;20227;-67
2023/04/28 00:32:35;;;;;;;4.00;3.30;;;9.30;94.40;;;;;;5132987;28;20718;-67
2023/04/28 00:35:03;;;;;;;4.95;2.80;;;9.30;94.50;;;;;;5133354;28;20184;-67
2023/04/28 00:37:36;;;;;;;7.78;2.67;;;9.40;94.50;;;;;;5133819;28;20219;-67
2023/04/28 00:40:04;;;;;;;8.00;3.10;;;9.40;94.70;;;;;;5133913;28;20668;-67
2023/04/28 00:42:37;;;;;;;4.68;2.85;;;9.40;94.60;;;;;;5133555;28;20293;-67
2023/04/28 00:45:07;;;;;;;7.72;2.90;;;9.40;94.30;;;;;;5132720;28;20218;-67
2023/04/28 00:47:35;;;;;;;5.30;3.10;;;9.40;94.10;;;;;;5133498;28;20223;-67
2023/04/28 00:50:27;;;;;;;4.50;3.50;;;9.40;93.90;;;;;;5132889;28;20183;-67
2023/04/28 00:52:55;;;;;;;7.35;3.15;;;9.30;93.80;;;;;;5133347;28;20192;-67
2023/04/28 00:55:22;;;;;;;5.28;2.47;;;9.30;94.00;;;;;;5132775;28;20570;-67
2023/04/28 00:57:52;;;;;;;4.32;2.90;;;9.30;94.00;;;;;;5132638;28;20220;-68
2023/04/28 01:00:19;;;;;;;5.57;2.53;;;9.30;94.00;;;;;;5132949;28;20603;-67
2023/04/28 01:02:47;;;;;;;3.10;2.10;;;9.30;94.10;;;;;;5133022;28;20227;-67
2023/04/28 01:05:20;;;;;;;3.00;2.00;;;9.30;94.20;;;;;;5132567;28;20183;-67
2023/04/28 01:07:50;;;;;;;3.58;2.63;;;9.40;94.40;;;;;;5133479;27;20198;-67
2023/04/28 01:10:17;;;;;;;4.20;3.28;;;9.40;94.50;;;;;;5136288;27;20267;-67
2023/04/28 01:12:47;;;;;;;6.28;3.67;;;9.40;94.30;;;;;;5136760;27;20190;-67
2023/04/28 01:15:18;;;;;;;3.80;2.47;;;9.50;94.40;;;;;;5136179;27;20276;-67
2023/04/28 01:17:46;;;;;;;4.13;2.85;;;9.50;94.40;;;;;;5136970;27;20222;-67
2023/04/28 01:20:14;;;;;;;3.40;2.50;;;9.40;94.50;;;;;;5136201;27;20195;-67
2023/04/28 01:22:41;;;;;;;4.05;2.70;;;9.40;94.70;;;;;;5136664;27;20187;-67
2023/04/28 01:25:10;;;;;;;5.53;2.97;;;9.40;94.70;;;;;;5136333;27;20183;-67
2023/04/28 01:27:39;;;;;;;5.13;3.00;;;9.40;95.00;;;;;;5136445;27;20202;-67
2023/04/28 01:30:08;;;;;;;5.05;2.90;;;9.50;95.20;;;;;;5136200;27;20557;-67
2023/04/28 01:32:36;;;;;;;4.53;2.65;;;9.50;95.30;;;;;;5136567;27;20219;-67
2023/04/28 01:35:07;;;;;;;4.35;2.55;;;9.50;95.30;;;;;;5135413;27;20201;-67
2023/04/28 01:37:35;;;;;;;4.13;2.78;;;9.50;95.20;;;;;;5136339;27;20211;-67
2023/04/28 01:40:03;;;;;;;4.50;2.47;;;9.50;95.20;;;;;;5135849;27;20252;-67
2023/04/28 01:42:32;;;;;;;3.00;2.05;;;9.50;95.30;;;;;;5136450;27;20183;-67
2023/04/28 01:44:59;;;;;;;4.78;4.28;;;9.50;95.20;;;;;;5136405;27;20315;-67
2023/04/28 01:47:27;;;;;;;4.40;2.80;;;9.50;94.80;;;;;;5136770;27;20223;-66
2023/04/28 01:49:56;;;;;;;5.28;2.10;;;9.50;94.40;;;;;;5135185;27;20196;-68
2023/04/28 01:52:26;;;;;;;3.53;2.47;;;9.50;94.70;;;;;;5135995;27;20958;-66
2023/04/28 01:54:54;;;;;;;4.20;2.97;;;9.50;95.00;;;;;;5135696;27;20191;-67
2023/04/28 01:57:23;;;;;;;3.03;2.67;;;9.50;95.20;;;;;;5135700;27;20221;-67
2023/04/28 01:59:53;;;;;;;3.78;2.42;;;9.50;95.30;;;;;;5135643;27;20191;-67
2023/04/28 02:02:23;;;;;;;3.22;2.25;;;9.60;95.30;;;;;;5135453;27;20188;-67
2023/04/28 02:04:51;;;;;;;6.72;2.30;;;9.60;95.30;;;;;;5135346;27;20191;-67
2023/04/28 02:07:20;;;;;;;4.63;2.28;;;9.60;95.40;;;;;;5135347;27;20184;-67
2023/04/28 02:09:48;;;;;;;3.10;2.60;;;9.60;95.30;;;;;;5135538;27;20220;-67
2023/04/28 02:12:21;;;;;;;4.07;2.53;;;9.70;95.30;;;;;;5135314;27;20642;-67
2023/04/28 02:14:51;;;;;;;5.43;2.83;;;9.70;95.00;;;;;;5135645;27;20240;-67
2023/04/28 02:17:19;;;;;;;3.35;2.17;;;9.70;95.10;;;;;;5135362;27;20577;-67
2023/04/28 02:19:46;;;;;;;3.00;2.22;;;9.80;95.00;;;;;;5134373;27;20241;-67
2023/04/28 02:22:14;;;;;;;5.05;2.67;;;9.70;95.20;;;;;;5135173;27;20187;-67
2023/04/28 02:24:46;;;;;;;4.25;2.70;;;9.60;95.50;;;;;;5135647;27;20244;-67
2023/04/28 02:27:15;;;;;;;3.05;2.17;;;9.60;95.80;;;;;;5134904;27;20183;-67
2023/04/28 02:29:43;;;;;;;3.80;2.90;;;9.60;96.10;;;;;;5135442;27;20554;-67
2023/04/28 02:32:11;;;;;;;3.80;2.80;;;9.60;96.40;;;;;;5134782;27;20195;-67
2023/04/28 02:34:38;;;;;;;4.10;2.92;;;9.50;96.40;;;;;;5135309;27;20542;-67
2023/04/28 02:37:08;;;;;;;4.13;2.72;;;9.60;96.70;;;;;;5134581;27;20762;-67
2023/04/28 02:39:36;;;;;;;8.98;2.63;;;9.60;96.90;;;;;;5135111;27;20195;-67
2023/04/28 02:42:04;;;;;;;3.85;2.60;;;9.60;97.10;;;;;;5134634;27;20240;-67
2023/04/28 02:44:32;;;;;;;4.00;2.80;;;9.70;97.30;;;;;;5134856;27;20195;-67
2023/04/28 02:47:00;;;;;;;4.47;3.13;;;9.70;97.30;;;;;;5133997;27;20214;-67
2023/04/28 02:49:29;;;;;;;4.60;3.35;;;9.80;97.40;;;;;;5134920;27;20191;-67
2023/04/28 02:51:58;;;;;;;3.97;2.90;;;9.90;97.30;;;;;;5134769;27;20237;-67
2023/04/28 02:54:29;;;;;;;4.45;3.10;;;9.90;97.40;;;;;;5135360;27;20199;-67
2023/04/28 02:56:58;;;;;;;4.45;2.47;;;9.90;97.30;;;;;;5134477;27;20187;-67
2023/04/28 02:59:26;;;;;;;4.22;2.88;;;9.90;97.20;;;;;;5134597;27;20187;-67
2023/04/28 03:01:53;;;;;;;3.78;2.47;;;9.90;97.10;;;;;;5134220;27;20670;-67
2023/04/28 03:04:22;;;;;;;4.30;2.42;;;9.90;97.10;;;;;;5134491;27;20192;-67
2023/04/28 03:06:51;;;;;;;4.22;2.47;;;9.90;97.10;;;;;;5133696;27;20271;-67
2023/04/28 03:09:18;;;;;;;5.10;2.25;;;9.80;97.20;;;;;;5134314;27;20187;-67
2023/04/28 03:11:45;;;;;;;3.55;2.80;;;9.90;97.30;;;;;;5134008;27;20634;-67
2023/04/28 03:14:13;;;;;;;4.10;3.10;;;9.90;97.30;;;;;;5134347;27;20187;-67
2023/04/28 03:16:41;;;;;;;4.20;3.05;;;9.90;97.10;;;;;;5133859;27;20219;-67
2023/04/28 03:19:09;;;;;;;3.80;2.30;;;10.00;96.50;;;;;;5134095;27;20179;-68
2023/04/28 03:21:39;;;;;;;3.50;2.20;;;9.90;97.00;;;;;;5134350;27;20533;-67
2023/04/28 03:24:08;;;;;;;4.35;2.50;;;10.00;96.50;;;;;;5133797;27;20193;-67
2023/04/28 03:26:36;;;;;;;4.20;2.45;;;10.00;96.50;;;;;;5134288;27;20192;-68
2023/04/28 03:29:03;;;;;;;4.57;2.60;;;10.00;96.50;;;;;;5133751;27;20278;-67
2023/04/28 03:31:30;;;;;;;4.32;3.08;;;9.90;97.00;;;;;;5133930;27;20812;-67
2023/04/28 03:33:58;;;;;;;4.07;2.85;;;9.90;97.40;;;;;;5133940;27;20274;-67
2023/04/28 03:36:30;;;;;;;3.95;2.80;;;9.90;97.00;;;;;;5134164;27;20283;-67
2023/04/28 03:39:03;;;;;;;4.40;2.50;;;9.90;97.00;;;;;;5133299;27;20257;-67
2023/04/28 03:41:32;;;;;;;4.15;2.58;;;10.00;96.50;;;;;;5133982;27;20187;-67
2023/04/28 03:43:59;;;;;;;3.40;2.47;;;9.90;97.10;;;;;;5133495;27;20266;-67
2023/04/28 03:46:31;;;;;;;3.15;2.38;;;9.90;97.20;;;;;;5133279;27;20190;-67
2023/04/28 03:48:58;;;;;;;5.25;2.30;;;9.90;97.20;;;;;;5133568;27;20533;-67
2023/04/28 03:51:27;;;;;;;3.95;2.85;;;9.90;97.20;;;;;;5133787;27;20274;-67
2023/04/28 03:53:55;;;;;;;4.25;2.72;;;9.80;97.30;;;;;;5133362;27;20714;-67
2023/04/28 03:56:24;;;;;;;8.75;2.70;;;9.80;97.50;;;;;;5133350;27;20281;-67
2023/04/28 03:58:53;;;;;;;4.25;2.55;;;9.80;97.70;;;;;;5133022;27;20215;-67
2023/04/28 04:01:21;;;;;;;3.00;2.13;;;9.80;97.90;;;;;;5134032;27;20184;-67
2023/04/28 04:03:48;;;;;;;3.33;2.47;;;9.80;98.00;;;;;;5133950;27;20191;-67
2023/04/28 04:06:16;;;;;;;4.20;2.65;;;9.90;98.10;;;;;;5134090;27;20545;-67
2023/04/28 04:08:43;;;;;;;4.30;2.35;;;9.90;98.00;;;;;;5133361;27;20220;-67
2023/04/28 04:11:16;;;;;;;3.63;2.40;;;9.90;98.00;;;;;;5133403;28;20282;-67
2023/04/28 04:13:48;;;;;;;4.22;2.72;;;9.90;98.30;;;;;;5133203;28;20187;-67
2023/04/28 04:16:17;;;;;;;3.38;2.28;;;9.90;97.80;;;;;;5133633;28;20216;-67
2023/04/28 04:18:44;;;;;;;4.50;3.15;;;9.90;97.70;;;;;;5133044;28;20207;-67
2023/04/28 04:21:17;;;;;;;5.25;3.13;;;9.90;97.70;;;;;;5133665;28;20203;-67
2023/04/28 04:23:44;;;;;;;7.85;3.67;;;9.90;97.70;;;;;;5133136;28;20205;-67
2023/04/28 04:26:12;;;;;;;5.32;3.92;;;9.90;97.80;;;;;;5133431;28;20244;-67
2023/04/28 04:28:44;;;;;;;13.93;12.30;;;10.00;97.20;;;;;;5132789;28;20209;-67
2023/04/28 04:31:17;;;;;;;7.45;6.07;;;10.00;97.00;;;;;;5133341;28;20195;-67
2023/04/28 04:33:44;;;;;;;4.10;3.35;;;10.00;96.70;;;;;;5131994;28;20184;-67
2023/04/28 04:36:15;;;;;;;5.18;3.10;;;10.00;96.70;;;;;;5132968;28;20192;-67
2023/04/28 04:38:45;;;;;;;5.85;4.00;;;10.00;96.90;;;;;;5129478;28;20204;-67
2023/04/28 04:41:19;;;;;;;4.63;3.40;;;10.00;97.00;;;;;;5133618;28;20187;-67
2023/04/28 04:43:46;;;;;;;4.47;3.33;;;10.00;97.20;;;;;;5135089;27;20187;-67
2023/04/28 04:46:20;;;;;;;6.32;3.25;;;10.00;97.30;;;;;;5137422;27;20223;-67
2023/04/28 04:48:47;;;;;;;3.67;2.80;;;10.00;97.50;;;;;;5123857;27;20272;-67
2023/04/28 04:51:15;;;;;;;3.80;2.45;;;10.00;97.70;;;;;;5137473;27;20595;-67
2023/04/28 04:53:42;;;;;;;5.50;3.30;;;10.10;97.70;;;;;;5136873;27;20561;-67
2023/04/28 04:56:09;;;;;;;3.92;2.85;;;10.20;97.20;;;;;;5137367;27;20188;-67
2023/04/28 04:58:37;;;;;;;4.80;3.28;;;10.10;97.20;;;;;;5136423;27;20212;-67
2023/04/28 05:01:05;;;;;;;5.38;3.55;;;10.10;97.70;;;;;;5137226;27;20191;-67
2023/04/28 05:03:34;;;;;;;4.10;3.70;;;10.00;97.80;;;;;;5136426;27;20184;-67
2023/04/28 05:06:02;;;;;;;4.25;3.38;;;10.10;98.20;;;;;;5137217;27;20613;-67
2023/04/28 05:08:33;;;;;;;5.40;3.60;;;10.10;98.40;;;;;;5131624;27;20183;-67
2023/04/28 05:11:00;;;;;;;4.00;3.20;;;10.10;98.90;;;;;;5117646;27;20199;-67
2023/04/28 05:13:29;;;;;;;5.80;3.55;;;10.10;98.60;;;;;;5136616;27;20187;-67
2023/04/28 05:15:57;;;;;;;5.53;3.80;;;10.10;98.70;;;;;;5135234;27;20279;-67
2023/04/28 05:18:27;;;;;;;9.40;4.40;;;10.20;98.80;;;;;;5135491;27;20215;-67
2023/04/28 05:20:56;;;;;;;5.45;3.60;;;10.20;98.70;;;;;;5134780;27;20546;-67
2023/04/28 05:23:24;;;;;;;3.97;2.95;;;10.30;98.80;;;;;;5135771;27;20223;-67
2023/04/28 05:25:52;;;;;;;5.00;4.13;;;10.30;98.00;;;;;;5135175;27;20184;-67
2023/04/28 05:28:23;;;;;;;7.20;4.57;;;10.30;98.20;;;;;;5132638;27;20188;-67
2023/04/28 05:30:51;;;;;;;6.05;4.25;;;10.30;98.30;;;;;;5135784;27;20191;-67
2023/04/28 05:33:19;;;;;;;5.82;3.80;;;10.30;98.50;;;;;;5135561;27;20195;-67
2023/04/28 05:35:46;;;;;;;4.75;3.30;;;10.30;98.40;;;;;;5135348;27;20180;-67
2023/04/28 05:38:16;;;;;;;5.13;3.30;;;10.30;98.40;;;;;;5135308;27;20250;-67
2023/04/28 05:40:43;;;;;;;7.25;4.53;;;10.30;98.70;;;;;;5135682;27;20664;-67
2023/04/28 05:43:10;;;;;;;8.75;6.10;;;10.30;98.80;;;;;;5135650;27;20195;-67
2023/04/28 05:45:38;;;;;;;7.18;6.28;;;10.40;98.90;;;;;;5134978;27;20180;-67
2023/04/28 05:48:06;;;;;;;5.50;4.55;;;10.40;99.30;;;;;;5135631;27;20192;-67
2023/04/28 05:50:33;;;;;;;4.78;3.25;;;10.40;99.40;;;;;;5135216;27;20190;-67
2023/04/28 05:53:01;;;;;;;6.70;3.25;;;10.50;99.20;;;;;;5135354;27;20192;-68
2023/04/28 05:55:30;;;;;;;7.30;5.95;;;10.50;99.50;;;;;;5133988;27;20183;-67
2023/04/28 05:57:58;;;;;;;5.15;2.65;;;10.60;99.60;;;;;;5128095;27;20211;-67
2023/04/28 06:00:26;;;;;;;6.07;2.60;;;10.70;99.90;;;;;;5123530;27;20519;-67
2023/04/28 06:02:54;;;;;;;4.13;2.45;;;10.80;99.90;;;;;;5135859;27;20190;-67
2023/04/28 06:05:23;;;;;;;4.70;2.20;;;10.90;99.90;;;;;;5135991;27;20187;-67
2023/04/28 06:07:50;;;;;;;4.57;2.00;;;11.10;99.90;;;;;;5135569;27;20533;-67
2023/04/28 06:10:18;;;;;;;3.65;2.05;;;11.10;99.90;;;;;;5134951;27;20188;-67
2023/04/28 06:12:47;;;;;;;3.13;1.70;;;11.20;99.90;;;;;;5134754;27;20187;-67
2023/04/28 06:15:15;;;;;;;2.95;1.90;;;11.30;99.90;;;;;;5131941;27;20230;-67
2023/04/28 06:17:42;;;;;;;2.85;1.70;;;11.40;99.90;;;;;;5117089;27;20195;-68
2023/04/28 06:20:12;;;;;;;2.30;1.77;;;11.40;99.90;;;;;;5120373;27;20189;-67
2023/04/28 06:22:40;;;;;;;3.90;1.27;;;11.60;99.90;;;;;;5115202;28;20241;-67
2023/04/28 06:25:08;;;;;;;5.55;1.83;;;11.50;99.90;;;;;;5134547;27;20549;-67
2023/04/28 06:27:35;;;;;;;4.05;2.30;;;11.50;99.90;;;;;;5134370;27;20223;-69
2023/04/28 06:30:05;;;;;;;4.00;2.28;;;11.60;99.90;;;;;;5113986;27;20199;-68
2023/04/28 06:32:32;;;;;;;5.35;3.13;;;11.70;99.90;;;;;;5114471;28;20192;-67
2023/04/28 06:34:59;;;;;;;3.17;1.77;;;11.70;99.90;;;;;;5132296;27;20187;-67
2023/04/28 06:37:29;;;;;;;5.53;2.08;;;11.70;99.90;;;;;;5134214;27;20214;-67
2023/04/28 06:39:57;;;;;;;3.83;2.22;;;11.70;99.90;;;;;;5134499;27;20211;-67
2023/04/28 06:42:24;;;;;;;2.95;1.73;;;11.70;99.90;;;;;;5123014;27;20271;-67
2023/04/28 06:44:51;;;;;;;3.65;1.80;;;11.70;99.90;;;;;;5122939;27;20184;-67
2023/04/28 06:47:20;;;;;;;2.60;2.03;;;11.70;99.90;;;;;;5136195;27;20194;-67
2023/04/28 06:49:49;;;;;;;4.32;2.30;;;11.70;99.90;;;;;;5136074;27;20240;-67
2023/04/28 06:52:16;;;;;;;3.13;1.80;;;11.70;99.90;;;;;;5134405;27;20565;-67
2023/04/28 06:54:45;;;;;;;3.05;2.28;;;11.70;99.90;;;;;;5135312;27;20184;-68
2023/04/28 06:57:12;;;;;;;4.70;2.35;;;11.80;99.90;;;;;;5134278;27;20279;-67
2023/04/28 06:59:45;;;;;;;4.70;2.30;;;11.80;99.90;;;;;;5131974;27;20264;-68
2023/04/28 07:02:12;;;;;;;4.47;1.98;;;11.90;99.90;;;;;;5134981;27;20470;-67
2023/04/28 07:04:41;;;;;;;5.03;2.60;;;12.00;99.90;;;;;;5134006;27;20188;-67
2023/04/28 07:07:09;;;;;;;4.47;2.58;;;12.00;99.90;;;;;;5134124;27;20187;-67
2023/04/28 07:09:37;;;;;;;4.80;2.30;;;12.00;99.90;;;;;;5134076;27;20184;-67
2023/04/28 07:12:06;;;;;;;3.70;2.58;;;12.20;99.90;;;;;;5134140;27;20469;-67
2023/04/28 07:14:34;;;;;;;2.90;2.00;;;12.20;99.90;;;;;;5134087;27;20270;-67
2023/04/28 07:17:02;;;;;;;6.13;2.20;;;12.20;99.90;;;;;;5131245;27;20479;-68
2023/04/28 07:19:30;;;;;;;5.25;2.10;;;12.30;99.90;;;;;;5124524;27;20215;-67
2023/04/28 07:21:59;;;;;;;4.18;2.28;;;12.40;99.60;;;;;;5116583;27;20191;-68
2023/04/28 07:24:27;;;;;;;2.40;1.60;;;12.40;99.80;;;;;;5113075;27;20193;-68
2023/04/28 07:26:54;;;;;;;2.90;1.55;;;12.40;99.20;;;;;;5114151;27;20229;-68
2023/04/28 07:29:22;;;;;;;4.07;2.25;;;12.50;98.60;;;;;;5117930;27;20180;-68
2023/04/28 07:31:50;;;;;;;3.10;2.20;;;12.50;98.00;;;;;;5130635;27;20188;-67
2023/04/28 07:34:17;;;;;;;2.70;1.90;;;12.50;98.00;;;;;;5124920;27;20920;-68
2023/04/28 07:36:44;;;;;;;4.37;1.70;;;12.50;98.30;;;;;;5113394;27;20434;-68
2023/04/28 07:39:13;;;;;;;3.10;1.50;;;12.60;97.90;;;;;;5120327;27;20846;-68
2023/04/28 07:41:40;;;;;;;3.50;1.80;;;12.80;97.20;;;;;;5112621;28;20441;-68
2023/04/28 07:44:09;;;;;;;2.30;1.37;;;12.80;96.30;;;;;;5120197;27;20539;-68
2023/04/28 07:46:36;;;;;;;2.90;1.45;;;12.70;96.60;;;;;;5117521;27;20523;-68
2023/04/28 07:49:04;;;;;;;2.20;1.50;;;12.80;95.50;;;;;;5111985;27;20499;-68
2023/04/28 07:51:31;;;;;;;2.40;1.20;;;12.90;95.70;;;;;;5114302;27;20441;-68
2023/04/28 07:53:59;;;;;;;3.37;1.60;;;13.00;95.40;;;;;;5112587;27;21004;-68
2023/04/28 07:56:27;;;;;;;3.55;2.28;;;12.90;95.30;;;;;;5111768;27;20434;-68
2023/04/28 07:58:55;;;;;;;3.30;1.73;;;13.00;95.00;;;;;;5120132;27;20250;-67
2023/04/28 08:01:21;;;;;;;3.03;1.77;;;13.00;94.90;;;;;;5118054;27;20494;-68
2023/04/28 08:03:48;;;;;;;3.33;1.90;;;13.00;94.60;;;;;;5124940;27;20195;-68
2023/04/28 08:06:20;;;;;;;2.70;1.57;;;13.00;94.10;;;;;;5118783;27;20465;-68
2023/04/28 08:08:48;;;;;;;3.77;2.07;;;13.00;94.40;;;;;;5121425;27;20434;-68
2023/04/28 08:11:15;;;;;;;2.50;1.70;;;13.10;94.50;;;;;;5122762;28;20537;-68
2023/04/28 08:13:44;;;;;;;2.70;1.43;;;13.10;94.60;;;;;;5121446;28;20441;-68
2023/04/28 08:16:11;;;;;;;2.70;1.83;;;13.10;94.80;;;;;;5122853;28;20515;-68
2023/04/28 08:18:39;;;;;;;2.43;1.37;;;13.10;95.00;;;;;;5127290;27;20646;-68
2023/04/28 08:21:06;;;;;;;2.30;1.20;;;13.10;94.50;;;;;;5126419;27;20438;-68
2023/04/28 08:23:33;;;;;;;2.47;1.53;;;13.10;94.90;;;;;;5122357;27;20452;-67
2023/04/28 08:26:04;;;;;;;2.20;1.23;;;13.10;95.30;;;;;;5129116;27;20472;-67
2023/04/28 08:28:32;;;;;;;4.83;1.97;;;13.10;95.40;;;;;;5124780;27;20944;-67
2023/04/28 08:31:01;;;;;;;4.20;2.10;;;13.20;95.50;;;;;;5131661;27;20486;-68
2023/04/28 08:33:28;;;;;;;2.40;1.30;;;13.20;95.70;;;;;;5125738;27;20433;-67
2023/04/28 08:35:56;;;;;;;3.97;1.20;;;13.20;96.30;;;;;;5127355;27;20844;-68
2023/04/28 08:38:24;;;;;;;2.10;1.00;;;13.20;96.10;;;;;;5128842;27;20781;-68
2023/04/28 08:40:51;;;;;;;5.60;1.20;;;13.30;95.60;;;;;;5124855;27;20433;-67
2023/04/28 08:43:20;;;;;;;2.10;1.10;;;13.30;95.70;;;;;;5119718;27;20813;-68
2023/04/28 08:45:52;;;;;;;4.07;0.90;;;13.40;95.80;;;;;;5126000;27;20449;-67
2023/04/28 08:48:22;;;;;;;2.20;1.07;;;13.40;95.80;;;;;;5123845;27;20430;-67
2023/04/28 08:50:51;;;;;;;3.60;2.40;;;13.50;95.90;;;;;;5127180;27;20434;-68
2023/04/28 08:53:23;;;;;;;4.00;2.20;;;13.50;95.70;;;;;;5124933;27;20533;-68
2023/04/28 08:55:55;;;;;;;4.20;2.20;;;13.50;95.00;;;;;;5121439;27;20964;-67
2023/04/28 08:58:24;;;;;;;2.40;1.03;;;13.50;95.20;;;;;;5125199;27;20469;-67
2023/04/28 09:00:51;;;;;;;2.93;1.03;;;13.50;95.20;;;;;;5122806;27;20514;-68
2023/04/28 09:03:20;;;;;;;2.20;1.20;;;13.50;95.30;;;;;;5120735;27;20495;-67
2023/04/28 09:05:48;;;;;;;3.73;1.00;;;13.60;95.80;;;;;;5125050;27;20438;-67
2023/04/28 09:08:16;;;;;;;2.93;1.50;;;13.70;95.60;;;;;;5123869;27;20920;-67
2023/04/28 09:10:44;;;;;;;2.13;1.33;;;13.70;95.50;;;;;;5120376;27;20458;-68
2023/04/28 09:13:24;;;;;;;2.43;1.20;;;13.60;95.70;;;;;;5123314;27;20445;-68
2023/04/28 09:15:59;;;;;;;2.17;1.10;;;13.60;96.10;;;;;;5124500;27;20837;-67
2023/04/28 09:18:28;;;;;;;2.30;1.20;;;13.70;96.10;;;;;;5130556;27;20443;-68
2023/04/28 09:21:04;;;;;;;2.27;1.03;;;13.80;95.90;;;;;;5126906;27;20478;-68
2023/04/28 09:23:32;;;;;;;5.60;1.60;;;13.80;95.80;;;;;;5124555;27;20976;-67
2023/04/28 09:26:05;;;;;;;3.17;1.37;;;13.80;95.80;;;;;;5126251;27;20445;-67
2023/04/28 09:28:33;;;;;;;3.20;1.10;;;13.80;96.00;;;;;;5120625;27;20442;-67
2023/04/28 09:31:01;;;;;;;2.50;1.23;;;13.80;96.00;;;;;;5128204;27;20445;-67
2023/04/28 09:33:30;;;;;;;2.70;1.30;;;13.70;96.40;;;;;;5119047;27;20526;-67
2023/04/28 09:35:57;;;;;;;3.30;1.90;;;13.60;97.10;;;;;;5127403;27;20812;-67
2023/04/28 09:38:24;;;;;;;3.30;1.70;;;13.60;97.20;;;;;;5121470;27;20450;-67
2023/04/28 09:40:54;;;;;;;2.50;1.17;;;13.50;97.30;;;;;;5123464;27;20836;-68
2023/04/28 09:43:29;;;;;;;2.90;1.50;;;13.50;97.70;;;;;;5126213;27;20497;-68
2023/04/28 09:45:57;;;;;;;3.27;1.70;;;13.40;97.90;;;;;;5125156;27;20432;-68
2023/04/28 09:48:34;;;;;;;2.70;1.40;;;13.40;98.20;;;;;;5123048;27;20495;-67
2023/04/28 09:51:03;;;;;;;2.10;0.93;;;13.40;98.40;;;;;;5126700;27;20808;-67
2023/04/28 09:53:31;;;;;;;2.97;1.23;;;13.40;98.60;;;;;;5124527;27;20488;-67
2023/04/28 09:56:02;;;;;;;2.97;1.97;;;13.40;98.80;;;;;;5124778;27;20450;-67
2023/04/28 09:58:31;;;;;;;3.77;2.90;;;13.40;99.30;;;;;;5127312;27;20485;-67
2023/04/28 10:01:00;;;;;;;4.33;3.60;;;13.40;99.50;;;;;;5127608;27;20535;-67
2023/04/28 10:03:28;;;;;;;3.70;2.60;;;13.50;99.80;;;;;;5127589;27;20449;-67
2023/04/28 10:05:59;;;;;;;2.77;1.53;;;13.60;99.20;;;;;;5120485;27;21496;-68
2023/04/28 10:08:27;;;;;;;3.57;2.07;;;13.60;98.80;;;;;;5119433;27;20916;-67
2023/04/28 10:10:56;;;;;;;3.70;1.70;;;13.70;98.60;;;;;;5132538;27;20845;-68
2023/04/28 10:13:29;;;;;;;3.30;1.77;;;13.70;98.20;;;;;;5126102;27;20445;-67
2023/04/28 10:15:57;;;;;;;3.60;1.90;;;13.70;97.60;;;;;;5114246;27;20453;-68
2023/04/28 10:18:24;;;;;;;2.43;1.50;;;13.80;97.70;;;;;;5122163;27;20482;-68
2023/04/28 10:20:58;;;;;;;6.33;1.60;;;13.80;97.50;;;;;;5132398;27;20477;-67
2023/04/28 10:23:53;;;;;;;3.70;1.30;;;13.90;96.30;;;;;;5124287;27;20529;-67
2023/04/28 10:26:22;;;;;;;2.20;0.90;;;13.90;96.10;;;;;;5131212;27;20972;-68
2023/04/28 10:28:51;;;;;;;3.80;1.30;;;13.90;96.50;;;;;;5114385;27;20434;-67
2023/04/28 10:31:21;;;;;;;2.20;1.20;;;13.90;96.00;;;;;;5116357;27;20441;-67
2023/04/28 10:33:49;;;;;;;1.80;1.03;;;14.00;95.70;;;;;;5130456;27;20430;-67
2023/04/28 10:36:49;;;;;;;2.17;1.03;;;14.00;96.30;;;;;;5129962;27;20438;-68
2023/04/28 10:39:16;;;;;;;1.93;1.00;;;14.00;96.80;;;;;;5128334;27;20520;-67
2023/04/28 10:41:45;;;;;;;5.23;1.10;;;14.10;96.60;;;;;;5130125;27;20457;-68
2023/04/28 10:44:43;;;;;;;2.33;0.90;;;14.20;96.70;;;;;;5122560;27;20414;-68
2023/04/28 10:47:12;;;;;;;3.23;1.33;;;14.30;96.60;;;;;;5116230;27;21008;-68
2023/04/28 10:50:05;;;;;;;3.40;1.27;;;14.50;96.00;;;;;;5114778;27;21192;-68
2023/04/28 10:52:52;;;;;;;2.30;1.20;;;14.70;95.70;;;;;;5128217;27;20923;-68
2023/04/28 10:55:36;;;;;;;1.70;0.80;;;14.70;95.90;;;;;;5130509;27;20456;-68
2023/04/28 10:58:31;;;;;;;3.20;0.87;;;14.80;95.50;;;;;;5132081;27;20469;-67
2023/04/28 11:01:26;;;;;;;1.83;0.73;;;14.80;94.90;;;;;;5126648;27;20536;-67
2023/04/28 11:03:58;;;;;;;2.47;0.80;;;14.80;95.20;;;;;;5113285;27;21175;-68
2023/04/28 11:06:27;;;;;;;1.80;0.80;;;14.80;95.30;;;;;;5113927;27;20438;-67
2023/04/28 11:08:56;;;;;;;1.73;0.70;;;14.80;95.30;;;;;;5113513;27;20442;-67
2023/04/28 11:11:25;;;;;;;1.70;0.80;;;14.80;95.10;;;;;;5118690;27;20464;-68
2023/04/28 11:13:53;;;;;;;1.90;0.80;;;14.80;95.20;;;;;;5113065;27;20434;-68
2023/04/28 11:16:25;;;;;;;1.90;0.87;;;14.80;94.20;;;;;;5130070;27;20877;-67
2023/04/28 11:18:58;;;;;;;2.67;1.43;;;14.80;93.80;;;;;;5131439;27;20436;-68
2023/04/28 11:21:27;;;;;;;1.90;0.90;;;14.70;93.90;;;;;;5130587;27;20572;-67
2023/04/28 11:23:56;;;;;;;1.60;0.67;;;14.80;94.50;;;;;;5131393;27;20494;-67
2023/04/28 11:26:23;;;;;;;2.27;1.20;;;14.90;94.40;;;;;;5131124;27;20441;-68
2023/04/28 11:28:52;;;;;;;1.97;0.90;;;14.90;94.50;;;;;;5112937;27;20855;-68
2023/04/28 11:31:22;;;;;;;3.00;2.00;;;14.90;94.60;;;;;;5117198;27;20824;-67
2023/04/28 11:33:56;;;;;;;3.70;1.47;;;14.90;94.80;;;;;;5113566;27;20438;-67
2023/04/28 11:36:28;;;;;;;2.23;1.20;;;14.90;94.50;;;;;;5115573;27;20432;-67
2023/04/28 11:38:57;;;;;;;2.20;1.30;;;14.90;94.50;;;;;;5115648;27;20441;-67
2023/04/28 11:41:25;;;;;;;1.90;1.10;;;14.80;95.20;;;;;;5120799;27;21051;-68
2023/04/28 11:43:53;;;;;;;2.50;1.17;;;14.80;95.60;;;;;;5125570;27;20429;-67
2023/04/28 11:46:22;;;;;;;1.93;0.90;;;14.80;95.90;;;;;;5129374;27;20545;-68
2023/04/28 11:48:59;;;;;;;2.10;0.90;;;14.80;96.00;;;;;;5129536;27;20803;-68
2023/04/28 11:51:31;;;;;;;2.37;1.10;;;14.80;95.60;;;;;;5117020;27;20524;-67
2023/04/28 11:54:00;;;;;;;1.80;0.90;;;14.70;95.90;;;;;;5115613;27;20939;-68
2023/04/28 11:56:27;;;;;;;5.53;0.93;;;14.70;95.50;;;;;;5130632;27;20460;-67
2023/04/28 11:59:02;;;;;;;1.80;0.60;;;14.70;94.90;;;;;;5130572;27;20523;-67
2023/04/28 12:01:29;;;;;;;1.80;1.00;;;14.70;95.30;;;;;;5130772;27;20531;-68
2023/04/28 12:03:56;;;;;;;2.67;0.80;;;14.70;95.60;;;;;;5130421;27;20448;-67
2023/04/28 12:06:24;;;;;;;2.60;1.40;;;14.60;95.20;;;;;;5130537;27;20469;-68
2023/04/28 12:08:51;;;;;;;2.80;1.00;;;14.50;95.70;;;;;;5130823;27;20441;-67
2023/04/28 12:11:20;;;;;;;2.70;1.10;;;14.50;95.50;;;;;;5130795;27;20429;-67
2023/04/28 12:14:08;;;;;;;2.37;1.20;;;14.60;96.10;;;;;;5130665;27;20433;-68
2023/04/28 12:16:42;;;;;;;1.93;0.90;;;14.70;96.70;;;;;;5129955;28;20869;-68
2023/04/28 12:19:10;;;;;;;2.00;0.80;;;14.80;96.00;;;;;;5130876;28;20847;-67
2023/04/28 12:21:38;;;;;;;2.67;0.83;;;14.70;95.80;;;;;;5130567;28;20569;-67
2023/04/28 12:24:19;;;;;;;1.80;0.60;;;14.60;95.70;;;;;;5130149;28;20437;-68
2023/04/28 12:26:48;;;;;;;3.30;0.80;;;14.60;96.30;;;;;;5130724;28;20433;-68
2023/04/28 12:29:38;;;;;;;2.77;1.53;;;14.50;96.60;;;;;;5130091;28;20532;-68
2023/04/28 12:32:08;;;;;;;2.43;1.23;;;14.60;97.00;;;;;;5112592;28;20440;-68
2023/04/28 12:34:36;;;;;;;5.10;1.03;;;14.60;97.00;;;;;;5112432;28;20519;-67
2023/04/28 12:37:04;;;;;;;2.60;1.60;;;14.50;96.70;;;;;;5112566;28;20552;-67
2023/04/28 12:39:32;;;;;;;2.43;1.10;;;14.40;96.90;;;;;;5112620;28;20470;-67
2023/04/28 12:42:02;;;;;;;2.03;1.27;;;14.30;97.30;;;;;;5111944;28;20478;-67
2023/04/28 12:44:34;;;;;;;3.30;0.83;;;14.30;97.90;;;;;;5112403;28;20472;-68
2023/04/28 12:47:02;;;;;;;1.87;0.87;;;14.30;98.00;;;;;;5112414;28;20437;-68
2023/04/28 12:49:29;;;;;;;2.47;1.00;;;14.30;97.40;;;;;;5112212;28;20465;-68
2023/04/28 12:51:56;;;;;;;1.93;0.83;;;14.30;97.90;;;;;;5112265;28;20446;-68
2023/04/28 12:54:23;;;;;;;1.70;0.60;;;14.20;98.30;;;;;;5112397;28;20477;-68
2023/04/28 12:56:50;;;;;;;1.90;0.80;;;14.20;98.40;;;;;;5112201;28;20484;-68
2023/04/28 12:59:18;;;;;;;1.90;1.03;;;14.20;99.00;;;;;;5112115;28;20521;-67
2023/04/28 13:01:46;;;;;;;2.23;0.90;;;14.10;99.50;;;;;;5112396;28;20482;-67